createdAt,value
2023-02-19T00:01:39.690Z,6.93
2023-02-19T00:04:22.401Z,6.53
2023-02-19T00:07:05.230Z,6.33
2023-02-19T00:09:45.793Z,6.90
2023-02-19T00:24:28.788Z,5.90
2023-02-19T00:27:07.197Z,6.10
2023-02-19T00:29:38.550Z,6.20
2023-02-19T00:32:42.965Z,7.03
2023-02-19T00:35:17.693Z,5.60
2023-02-19T00:37:56.665Z,4.70
2023-02-19T00:40:50.149Z,4.83
2023-02-19T00:43:35.486Z,5.77
2023-02-19T00:58:44.328Z,5.33
2023-02-19T01:02:37.546Z,6.03
2023-02-19T01:09:33.179Z,5.57
2023-02-19T01:12:42.638Z,5.43
2023-02-19T01:15:47.605Z,6.23
2023-02-19T01:22:11.008Z,6.27
2023-02-19T01:25:34.637Z,6.80
2023-02-19T01:28:12.947Z,5.73
2023-02-19T01:33:52.942Z,4.40
2023-02-19T01:36:31.334Z,5.57
2023-02-19T01:39:09.016Z,6.07
2023-02-19T01:41:55.187Z,5.87
2023-02-19T01:45:01.517Z,4.40
2023-02-19T01:50:39.622Z,5.63
2023-02-19T01:59:15.617Z,5.00
2023-02-19T02:01:49.455Z,5.37
2023-02-19T02:05:13.517Z,6.27
2023-02-19T02:08:00.417Z,5.20
2023-02-19T02:17:28.131Z,4.27
2023-02-19T02:20:28.462Z,5.33
2023-02-19T02:28:37.011Z,4.20
2023-02-19T02:31:21.771Z,4.10
2023-02-19T02:36:58.267Z,3.77
2023-02-19T02:39:33.527Z,3.83
2023-02-19T02:42:21.176Z,2.97
2023-02-19T02:45:05.389Z,4.67
2023-02-19T02:47:55.085Z,4.13
2023-02-19T03:04:17.954Z,4.83
2023-02-19T03:07:06.117Z,4.60
2023-02-19T03:09:45.707Z,5.40
2023-02-19T03:16:11.617Z,4.63
2023-02-19T03:22:28.014Z,4.17
2023-02-19T03:25:34.948Z,3.43
2023-02-19T03:48:34.941Z,2.93
2023-02-19T03:51:45.696Z,3.17
2023-02-19T04:02:14.723Z,2.43
2023-02-19T04:05:35.649Z,2.40
2023-02-19T04:08:16.808Z,1.90
2023-02-19T04:11:55.205Z,1.60
2023-02-19T04:15:12.696Z,2.03
2023-02-19T04:20:48.238Z,2.17
2023-02-19T04:23:38.631Z,1.90
2023-02-19T04:26:28.829Z,2.33
2023-02-19T04:29:17.288Z,2.20
2023-02-19T04:31:47.720Z,2.70
2023-02-19T04:34:23.038Z,2.57
2023-02-19T04:37:28.855Z,2.47
2023-02-19T04:43:36.307Z,3.10
2023-02-19T04:46:09.116Z,2.43
2023-02-19T04:48:46.487Z,3.00
2023-02-19T04:51:19.385Z,3.30
2023-02-19T04:54:01.561Z,3.70
2023-02-19T04:56:35.730Z,3.40
2023-02-19T04:59:08.040Z,2.80
2023-02-19T05:01:38.316Z,3.13
2023-02-19T05:04:10.770Z,3.27
2023-02-19T05:07:00.425Z,2.67
2023-02-19T05:09:30.699Z,2.50
2023-02-19T05:14:49.615Z,2.87
2023-02-19T05:17:27.860Z,3.23
2023-02-19T05:19:59.709Z,3.50
2023-02-19T05:22:40.966Z,3.57
2023-02-19T05:25:23.993Z,3.77
2023-02-19T05:28:19.413Z,2.77
2023-02-19T05:30:58.257Z,3.90
2023-02-19T05:42:03.556Z,3.47
2023-02-19T05:44:42.774Z,3.77
2023-02-19T05:47:15.648Z,4.47
2023-02-19T05:49:49.862Z,3.53
2023-02-19T05:52:23.767Z,5.07
2023-02-19T05:54:57.678Z,4.63
2023-02-19T05:57:36.426Z,5.83
2023-02-19T06:02:55.247Z,4.33
2023-02-19T06:05:27.724Z,4.50
2023-02-19T06:07:58.085Z,3.60
2023-02-19T06:10:42.663Z,4.97
2023-02-19T06:13:22.587Z,4.37
2023-02-19T06:16:01.417Z,4.53
2023-02-19T06:18:40.755Z,4.77
2023-02-19T06:21:18.055Z,3.93
2023-02-19T06:28:58.128Z,4.17
2023-02-19T06:31:32.685Z,6.30
2023-02-19T06:34:07.557Z,5.23
2023-02-19T06:36:37.898Z,5.50
2023-02-19T06:39:11.628Z,5.77
2023-02-19T06:42:00.253Z,4.63
2023-02-19T06:44:35.228Z,4.57
2023-02-19T07:23:01.112Z,5.13
2023-02-19T07:29:31.592Z,8.37
2023-02-19T07:32:42.923Z,6.27
2023-02-19T07:39:03.597Z,7.10
2023-02-19T07:45:33.081Z,8.07
2023-02-19T07:48:35.855Z,6.37
2023-02-19T08:33:17.927Z,5.33
2023-02-19T08:38:46.324Z,6.13
2023-02-19T08:41:19.231Z,5.93
2023-02-19T08:48:01.759Z,6.83
2023-02-19T08:51:09.556Z,8.10
2023-02-19T08:53:47.977Z,7.80
2023-02-19T09:01:28.737Z,7.37
2023-02-19T09:04:08.630Z,6.17
2023-02-19T09:06:43.849Z,6.30
2023-02-19T09:09:14.076Z,6.83
2023-02-19T09:12:00.173Z,7.50
2023-02-19T09:29:02.051Z,8.00
2023-02-19T09:39:43.753Z,8.87
2023-02-19T09:42:38.477Z,9.40
2023-02-19T09:49:52.132Z,8.60
2023-02-19T09:53:03.308Z,9.23
2023-02-19T09:56:07.158Z,8.93
2023-02-19T09:59:21.912Z,7.20
2023-02-19T10:02:21.123Z,7.83
2023-02-19T10:05:04.959Z,6.63
2023-02-19T10:15:41.792Z,6.50
2023-02-19T10:18:16.417Z,7.57
2023-02-19T10:21:02.193Z,7.03
2023-02-19T10:23:33.027Z,7.20
2023-02-19T10:26:04.568Z,8.57
2023-02-19T10:28:47.496Z,7.00
2023-02-19T10:31:29.920Z,9.93
2023-02-19T10:34:02.892Z,8.47
2023-02-19T10:36:43.656Z,8.03
2023-02-19T10:44:28.185Z,8.17
2023-02-19T10:47:23.281Z,9.17
2023-02-19T10:49:55.843Z,8.27
2023-02-19T10:52:31.776Z,10.27
2023-02-19T10:55:22.075Z,10.07
2023-02-19T10:57:51.786Z,9.50
2023-02-19T11:06:35.095Z,8.13
2023-02-19T11:09:05.204Z,7.87
2023-02-19T11:11:43.570Z,7.63
2023-02-19T11:18:37.256Z,8.87
2023-02-19T11:25:21.789Z,8.80
2023-02-19T11:28:57.222Z,9.10
2023-02-19T11:32:11.044Z,9.97
2023-02-19T11:35:23.486Z,9.37
2023-02-19T11:43:53.658Z,9.93
2023-02-19T11:46:37.937Z,11.13
2023-02-19T11:49:31.157Z,12.00
2023-02-19T11:52:23.817Z,10.30
2023-02-19T11:54:58.659Z,9.93
2023-02-19T11:57:48.413Z,11.33
2023-02-19T12:00:28.479Z,9.90
2023-02-19T12:08:41.824Z,10.83
2023-02-19T12:23:23.215Z,6.80
2023-02-19T12:40:22.803Z,6.90
2023-02-19T12:49:00.338Z,7.83
2023-02-19T12:51:36.806Z,7.97
2023-02-19T12:54:15.204Z,7.40
2023-02-19T12:56:51.479Z,7.00
2023-02-19T12:59:28.992Z,7.40
2023-02-19T13:02:02.918Z,6.73
2023-02-19T13:12:44.938Z,6.30
2023-02-19T13:16:17.357Z,7.13
